Cliff, Kentucky
Current Conditions -  °F | °C
As of 9:15 PM on Friday 19 Dec 2014 (Local Time) from KSJS Reporting Station
Clear Clear  
Wind Chill: 20°   Ceiling: Unl
Heat Index: 27°   Visibility: 10mi
Dew Point: 23°   Wind: 6mph
Humidity: 86%   Direction: 60°ENE
Pressure: 30.25"   Gusts: NA
Location:  37.6405°N, 82.8256°W
Report Text: KSJS 200215Z AUTO 06005KT 10SM CLR M03/M05 A3025 RMK AO2 T10301051
Loading
Personal Weather Stations






























Interactive Weather Map New forecast layout! Learn more

10-Day Weather Forecast

Advertisements
Track Severe Weather on mobile